Time;durP1;ratioP1;P1;durP2;ratioP2;P2;SDS_P1;SDS_P2;PMS_P1;PMS_P2;Temp;Humidity;BMP_temperature;BMP_pressure;BME280_temperature;BME280_humidity;BME280_pressure;Samples;Min_cycle;Max_cycle;Signal;HPM_P1;HPM_P2
2021/04/18 00:00:11;;;;;;;1.43;1.33;;;5.30;99.90;;;;;;5067279;28;20304;-80
2021/04/18 00:02:37;;;;;;;2.83;2.60;;;5.40;99.90;;;;;;5066347;28;20222;-80
2021/04/18 00:05:06;;;;;;;3.00;2.03;;;5.40;99.90;;;;;;5050045;28;20195;-80
2021/04/18 00:07:32;;;;;;;7.03;3.00;;;5.40;99.90;;;;;;5066714;28;20224;-79
2021/04/18 00:09:59;;;;;;;6.23;3.00;;;5.30;99.90;;;;;;5046847;28;21255;-82
2021/04/18 00:12:25;;;;;;;1.17;1.17;;;5.20;99.90;;;;;;5046558;28;20245;-80
2021/04/18 00:14:52;;;;;;;6.97;2.50;;;5.20;99.90;;;;;;5031841;28;20228;-82
2021/04/18 00:17:18;;;;;;;0.67;0.67;;;5.20;99.90;;;;;;5033673;28;20193;-82
2021/04/18 00:19:44;;;;;;;3.37;1.30;;;5.20;99.90;;;;;;5053869;28;20228;-82
2021/04/18 00:22:10;;;;;;;2.13;1.20;;;5.10;99.90;;;;;;5048851;28;20238;-80
2021/04/18 00:24:37;;;;;;;1.43;1.40;;;5.00;99.90;;;;;;5035369;28;20240;-80
2021/04/18 00:27:04;;;;;;;0.90;0.90;;;5.00;99.90;;;;;;5050398;28;20709;-83
2021/04/18 00:29:30;;;;;;;1.87;1.57;;;5.10;99.90;;;;;;5049503;28;20189;-80
2021/04/18 00:31:55;;;;;;;2.10;1.93;;;5.10;99.90;;;;;;5052759;28;20317;-81
2021/04/18 00:34:21;;;;;;;1.83;1.73;;;5.20;99.90;;;;;;5016917;28;20217;-81
2021/04/18 00:36:47;;;;;;;1.83;1.70;;;5.20;99.90;;;;;;5031716;28;20221;-81
2021/04/18 00:39:13;;;;;;;2.30;1.83;;;5.20;99.90;;;;;;5029543;28;20254;-80
2021/04/18 00:41:39;;;;;;;2.57;2.37;;;5.10;99.90;;;;;;5048287;28;20596;-80
2021/04/18 00:44:05;;;;;;;3.57;3.33;;;5.20;99.90;;;;;;5032731;28;20243;-80
2021/04/18 00:46:30;;;;;;;2.23;1.40;;;5.20;99.90;;;;;;5032112;28;20220;-81
2021/04/18 00:48:56;;;;;;;2.20;2.10;;;5.20;99.90;;;;;;5031876;28;20223;-82
2021/04/18 00:51:22;;;;;;;1.77;1.37;;;5.20;99.90;;;;;;5033534;28;20534;-81
2021/04/18 00:53:48;;;;;;;2.13;1.30;;;5.10;99.90;;;;;;5049690;28;20213;-83
2021/04/18 00:56:14;;;;;;;2.00;1.90;;;5.20;99.90;;;;;;5014003;28;20187;-81
2021/04/18 00:58:40;;;;;;;2.57;1.93;;;5.20;99.90;;;;;;5034965;28;20562;-80
2021/04/18 01:01:07;;;;;;;7.83;2.40;;;5.20;99.90;;;;;;5050746;28;20281;-80
2021/04/18 01:03:33;;;;;;;1.63;1.53;;;5.20;99.90;;;;;;5048328;28;20216;-80
2021/04/18 01:05:59;;;;;;;1.40;1.37;;;5.20;99.90;;;;;;5025389;28;20209;-81
2021/04/18 01:08:25;;;;;;;4.10;2.03;;;5.20;99.90;;;;;;5032551;28;20257;-80
2021/04/18 01:10:51;;;;;;;3.00;1.77;;;5.10;99.90;;;;;;5035531;28;20193;-80
2021/04/18 01:13:16;;;;;;;1.90;1.80;;;5.10;99.90;;;;;;5036304;28;20224;-81
2021/04/18 01:15:42;;;;;;;2.50;2.07;;;5.20;99.90;;;;;;5054999;28;20217;-81
2021/04/18 01:18:08;;;;;;;1.10;1.10;;;5.20;99.90;;;;;;5053534;28;21292;-83
2021/04/18 01:20:34;;;;;;;4.47;2.00;;;5.10;99.90;;;;;;5019665;28;20793;-82
2021/04/18 01:23:00;;;;;;;1.97;1.83;;;5.10;99.90;;;;;;5022450;28;20702;-80
2021/04/18 01:25:26;;;;;;;1.13;1.07;;;5.10;99.90;;;;;;5037570;28;20254;-80
2021/04/18 01:27:52;;;;;;;1.97;1.67;;;5.00;99.90;;;;;;5035454;28;20216;-80
2021/04/18 01:30:24;;;;;;;1.27;1.17;;;5.00;99.90;;;;;;5048418;28;20252;-83
2021/04/18 01:32:52;;;;;;;2.43;1.30;;;5.00;99.90;;;;;;5071085;28;20227;-81
2021/04/18 01:35:18;;;;;;;2.57;1.67;;;4.90;99.90;;;;;;5068733;28;20196;-81
2021/04/18 01:37:44;;;;;;;9.73;2.17;;;4.90;99.90;;;;;;5076410;28;20188;-81
2021/04/18 01:40:16;;;;;;;3.80;1.60;;;4.90;99.90;;;;;;5054317;28;20208;-83
2021/04/18 01:42:44;;;;;;;2.70;1.17;;;4.80;99.90;;;;;;5056334;28;20246;-82
2021/04/18 01:45:11;;;;;;;2.57;1.47;;;4.90;99.90;;;;;;5037357;28;20225;-82
2021/04/18 01:47:38;;;;;;;2.63;1.67;;;4.90;99.90;;;;;;5070849;28;20319;-82
2021/04/18 01:50:12;;;;;;;1.77;1.67;;;4.90;99.90;;;;;;5054266;28;20221;-82
2021/04/18 01:52:38;;;;;;;7.30;0.70;;;5.00;99.90;;;;;;5071510;28;20208;-82
2021/04/18 01:55:05;;;;;;;2.50;2.40;;;5.00;99.90;;;;;;5051175;28;20219;-81
2021/04/18 01:57:32;;;;;;;1.87;1.67;;;4.90;99.90;;;;;;5052486;28;20240;-81
2021/04/18 01:59:58;;;;;;;1.10;1.10;;;4.90;99.90;;;;;;5037382;28;20225;-81
2021/04/18 02:02:24;;;;;;;3.70;2.00;;;5.00;99.90;;;;;;5069917;28;20548;-81
2021/04/18 02:04:53;;;;;;;2.10;1.90;;;5.00;99.90;;;;;;5022194;28;20646;-80
2021/04/18 02:07:19;;;;;;;2.57;1.57;;;4.90;99.90;;;;;;5054458;28;20219;-81
2021/04/18 02:09:44;;;;;;;1.53;1.43;;;4.90;99.90;;;;;;5051958;28;20294;-81
2021/04/18 02:12:11;;;;;;;5.63;3.17;;;4.90;99.90;;;;;;5039692;28;20307;-81
2021/04/18 02:14:37;;;;;;;5.00;2.27;;;5.00;99.90;;;;;;5053944;28;20221;-81
2021/04/18 02:17:04;;;;;;;1.17;1.10;;;5.00;99.90;;;;;;5055299;28;20203;-81
2021/04/18 02:19:30;;;;;;;6.07;2.43;;;5.10;99.90;;;;;;5053761;28;20220;-80
2021/04/18 02:21:56;;;;;;;5.17;2.27;;;5.10;99.90;;;;;;5053421;28;20229;-80
2021/04/18 02:24:22;;;;;;;1.93;1.67;;;5.00;99.90;;;;;;5033954;28;20224;-82
2021/04/18 02:26:48;;;;;;;1.63;1.53;;;5.00;99.90;;;;;;5037288;28;20716;-80
2021/04/18 02:29:14;;;;;;;1.50;1.40;;;5.10;99.90;;;;;;5036566;28;20528;-81
2021/04/18 02:31:40;;;;;;;3.20;1.57;;;5.10;99.90;;;;;;5037863;28;20233;-80
2021/04/18 02:34:06;;;;;;;11.93;1.10;;;5.20;99.90;;;;;;5035064;28;20225;-81
2021/04/18 02:36:32;;;;;;;4.33;2.20;;;5.20;99.90;;;;;;5020555;28;20209;-80
2021/04/18 02:38:58;;;;;;;3.23;2.90;;;5.10;99.90;;;;;;5035415;28;20209;-80
2021/04/18 02:41:23;;;;;;;2.37;1.80;;;5.00;99.90;;;;;;5052405;28;20205;-81
2021/04/18 02:43:49;;;;;;;1.60;1.50;;;5.00;99.90;;;;;;5055512;28;20602;-80
2021/04/18 02:46:15;;;;;;;2.60;2.40;;;5.00;99.90;;;;;;5020383;28;20698;-81
2021/04/18 02:48:41;;;;;;;1.83;1.53;;;4.90;99.90;;;;;;5053307;28;20225;-81
2021/04/18 02:51:07;;;;;;;4.53;2.37;;;4.80;99.90;;;;;;5053249;28;21167;-82
2021/04/18 02:53:32;;;;;;;11.00;1.93;;;4.80;99.90;;;;;;5050824;28;20309;-81
2021/04/18 02:55:58;;;;;;;3.17;1.43;;;4.90;99.90;;;;;;5033228;28;20664;-81
2021/04/18 02:58:24;;;;;;;0.70;0.70;;;4.80;99.90;;;;;;5030027;28;20210;-81
2021/04/18 03:00:50;;;;;;;2.10;1.90;;;4.80;99.90;;;;;;5037412;28;20252;-81
2021/04/18 03:03:15;;;;;;;9.60;2.37;;;4.80;99.90;;;;;;5068996;28;20223;-81
2021/04/18 03:05:41;;;;;;;6.57;1.47;;;4.80;99.90;;;;;;5019989;28;20995;-82
2021/04/18 03:08:08;;;;;;;3.40;1.67;;;4.90;99.90;;;;;;5037282;28;20273;-82
2021/04/18 03:10:34;;;;;;;2.20;2.00;;;4.90;99.90;;;;;;5053198;28;20220;-82
2021/04/18 03:12:59;;;;;;;3.33;3.13;;;4.90;99.90;;;;;;5053511;28;21023;-81
2021/04/18 03:15:25;;;;;;;2.10;1.47;;;4.90;99.90;;;;;;5053451;28;20598;-80
2021/04/18 03:17:51;;;;;;;3.33;1.60;;;4.80;99.90;;;;;;5030960;28;20999;-83
2021/04/18 03:20:17;;;;;;;2.70;2.13;;;4.70;99.90;;;;;;5031320;28;20221;-83
2021/04/18 03:22:43;;;;;;;2.13;1.37;;;4.80;99.90;;;;;;5068610;28;20189;-82
2021/04/18 03:25:10;;;;;;;6.53;1.87;;;4.80;99.90;;;;;;5030146;28;20228;-81
2021/04/18 03:27:36;;;;;;;2.73;2.03;;;4.80;99.90;;;;;;5049766;28;20212;-81
2021/04/18 03:30:03;;;;;;;1.00;1.00;;;4.70;99.90;;;;;;5050140;28;20231;-81
2021/04/18 03:32:28;;;;;;;6.20;1.23;;;4.60;99.90;;;;;;5034998;28;21112;-81
2021/04/18 03:34:54;;;;;;;0.80;0.80;;;4.70;99.90;;;;;;5018240;28;20193;-83
2021/04/18 03:37:20;;;;;;;3.43;1.53;;;4.80;99.90;;;;;;5033828;28;20745;-81
2021/04/18 03:39:47;;;;;;;2.07;1.77;;;4.70;99.90;;;;;;5071766;28;20243;-83
2021/04/18 03:42:12;;;;;;;5.20;2.13;;;4.70;99.90;;;;;;5050349;28;20225;-80
2021/04/18 03:44:38;;;;;;;2.40;1.63;;;4.80;99.90;;;;;;5067850;28;20258;-83
2021/04/18 03:47:04;;;;;;;1.87;1.77;;;4.90;99.90;;;;;;5037926;28;20193;-82
2021/04/18 03:49:30;;;;;;;3.87;2.27;;;5.00;99.90;;;;;;5033768;28;20225;-82
2021/04/18 03:51:56;;;;;;;5.03;1.40;;;4.90;99.90;;;;;;5048416;28;20243;-83
2021/04/18 03:54:22;;;;;;;2.60;1.97;;;5.00;99.90;;;;;;5046833;28;20205;-81
2021/04/18 03:56:51;;;;;;;2.33;2.20;;;5.00;99.90;;;;;;5049671;28;20279;-80
2021/04/18 03:59:18;;;;;;;4.80;2.53;;;5.10;99.90;;;;;;5051203;28;20647;-80
2021/04/18 04:01:44;;;;;;;5.93;2.47;;;5.10;99.90;;;;;;5052646;28;20235;-81
2021/04/18 04:04:10;;;;;;;6.33;4.10;;;5.10;99.90;;;;;;5070891;28;20217;-81
2021/04/18 04:06:36;;;;;;;4.00;2.03;;;5.00;99.90;;;;;;5036920;28;20228;-81
2021/04/18 04:09:03;;;;;;;1.13;1.13;;;5.00;99.90;;;;;;5050167;28;20213;-81
2021/04/18 04:11:28;;;;;;;5.23;1.50;;;5.10;99.90;;;;;;5037614;28;20201;-81
2021/04/18 04:13:54;;;;;;;16.37;2.67;;;5.00;99.90;;;;;;5054353;28;20197;-82
2021/04/18 04:16:20;;;;;;;4.57;3.07;;;5.10;99.90;;;;;;5039232;28;20223;-81
2021/04/18 04:18:46;;;;;;;6.90;3.37;;;5.10;99.90;;;;;;5055140;28;20189;-80
2021/04/18 04:21:12;;;;;;;2.93;2.67;;;5.20;99.90;;;;;;5038770;28;20217;-82
2021/04/18 04:23:37;;;;;;;3.13;2.40;;;5.20;99.90;;;;;;5055307;28;20572;-81
2021/04/18 04:26:04;;;;;;;5.03;4.60;;;5.20;99.90;;;;;;5054776;28;20291;-81
2021/04/18 04:28:30;;;;;;;4.03;2.60;;;5.20;99.90;;;;;;5046705;28;20280;-81
2021/04/18 04:30:56;;;;;;;4.00;2.57;;;5.20;99.90;;;;;;5050461;28;20953;-82
2021/04/18 04:33:22;;;;;;;21.87;2.80;;;5.10;99.90;;;;;;5052355;28;20274;-81
2021/04/18 04:35:48;;;;;;;1.50;1.40;;;5.10;99.90;;;;;;5037745;28;20602;-81
2021/04/18 04:38:13;;;;;;;1.93;1.83;;;5.10;99.90;;;;;;5036363;28;20190;-81
2021/04/18 04:40:39;;;;;;;5.33;2.30;;;5.10;99.90;;;;;;5052617;28;20255;-81
2021/04/18 04:43:05;;;;;;;8.83;1.73;;;5.00;99.90;;;;;;4978842;28;21299;-82
2021/04/18 04:45:31;;;;;;;1.40;1.40;;;4.90;99.90;;;;;;5048811;28;20218;-81
2021/04/18 04:47:56;;;;;;;1.90;1.30;;;4.80;99.90;;;;;;5022939;28;20712;-81
2021/04/18 04:50:22;;;;;;;5.93;1.73;;;4.70;99.90;;;;;;5018285;28;21813;-81
2021/04/18 04:52:48;;;;;;;2.40;1.70;;;4.80;99.90;;;;;;5036160;28;20189;-80
2021/04/18 04:55:15;;;;;;;1.07;1.07;;;4.90;99.90;;;;;;5032570;28;20200;-81
2021/04/18 04:57:41;;;;;;;0.80;0.80;;;4.80;99.90;;;;;;5036787;28;20253;-81
2021/04/18 05:00:08;;;;;;;1.33;1.33;;;4.80;99.90;;;;;;5070965;28;20193;-81
2021/04/18 05:02:34;;;;;;;3.67;1.67;;;4.80;99.90;;;;;;5053657;28;20188;-81
2021/04/18 05:04:59;;;;;;;1.30;1.20;;;4.90;99.90;;;;;;4992742;28;20208;-81
2021/04/18 05:07:25;;;;;;;1.40;1.30;;;5.00;99.90;;;;;;5052093;28;20211;-81
2021/04/18 05:09:51;;;;;;;11.20;2.20;;;5.00;99.90;;;;;;5020186;28;20185;-80
2021/04/18 05:12:17;;;;;;;8.80;3.00;;;5.10;99.90;;;;;;5037499;28;20200;-81
2021/04/18 05:14:43;;;;;;;3.50;2.50;;;5.30;99.90;;;;;;5055186;28;20192;-80
2021/04/18 05:17:09;;;;;;;2.73;2.13;;;5.50;99.90;;;;;;5052142;28;20180;-81
2021/04/18 05:19:35;;;;;;;5.17;2.30;;;5.90;99.90;;;;;;5055468;28;20681;-82
2021/04/18 05:22:01;;;;;;;5.70;3.17;;;6.30;99.90;;;;;;5035554;28;21293;-81
2021/04/18 05:24:27;;;;;;;11.30;2.67;;;7.30;99.90;;;;;;5062845;28;20196;-81
2021/04/18 05:26:53;;;;;;;6.30;3.10;;;8.70;99.90;;;;;;5020763;28;20219;-82
2021/04/18 05:29:19;;;;;;;3.17;2.77;;;9.40;99.90;;;;;;5052417;28;20673;-81
2021/04/18 05:31:46;;;;;;;2.57;2.17;;;9.20;99.90;;;;;;5037554;28;20331;-81
2021/04/18 05:34:12;;;;;;;3.70;2.50;;;9.20;99.90;;;;;;5047692;28;20260;-82
2021/04/18 05:36:37;;;;;;;4.37;2.13;;;9.90;99.90;;;;;;5034002;28;20193;-82
2021/04/18 05:39:07;;;;;;;9.63;4.83;;;10.90;99.90;;;;;;5055678;28;20188;-82
2021/04/18 05:41:34;;;;;;;4.63;2.77;;;12.20;99.90;;;;;;5020393;28;20219;-81
2021/04/18 05:44:00;;;;;;;10.43;3.43;;;13.40;99.90;;;;;;5052276;28;20198;-83
2021/04/18 05:46:26;;;;;;;6.17;3.77;;;14.50;99.90;;;;;;5037084;28;20994;-83
2021/04/18 05:48:51;;;;;;;7.40;4.23;;;15.20;99.90;;;;;;5051874;28;20280;-81
2021/04/18 05:51:17;;;;;;;3.27;2.50;;;15.70;99.90;;;;;;5036295;28;20197;-82
2021/04/18 05:53:43;;;;;;;6.77;1.67;;;16.20;99.90;;;;;;5036699;28;20185;-82
2021/04/18 05:56:08;;;;;;;1.63;1.40;;;17.10;99.90;;;;;;5027651;28;20216;-83
2021/04/18 05:58:34;;;;;;;2.37;1.70;;;17.70;99.90;;;;;;5022482;28;20209;-82
2021/04/18 06:01:00;;;;;;;2.60;2.33;;;18.30;99.90;;;;;;5024639;28;20228;-83
2021/04/18 06:03:25;;;;;;;6.07;2.10;;;18.50;99.90;;;;;;4979609;28;20988;-82
2021/04/18 06:05:51;;;;;;;7.37;3.07;;;18.80;99.90;;;;;;4964718;28;20196;-81
2021/04/18 06:08:17;;;;;;;7.97;1.93;;;17.90;99.90;;;;;;5074115;28;20193;-85
2021/04/18 06:10:43;;;;;;;9.30;3.23;;;17.20;99.90;;;;;;4961478;28;20666;-84
2021/04/18 06:13:09;;;;;;;11.37;4.07;;;17.20;99.90;;;;;;5051754;28;20185;-83
2021/04/18 06:15:34;;;;;;;5.77;2.00;;;16.10;99.90;;;;;;5020081;28;20870;-83
2021/04/18 06:18:00;;;;;;;3.20;2.07;;;14.90;99.90;;;;;;5043874;28;20198;-83
2021/04/18 06:20:26;;;;;;;3.23;2.83;;;15.50;99.90;;;;;;5059036;28;20693;-83
2021/04/18 06:22:52;;;;;;;3.87;2.63;;;16.00;99.90;;;;;;5041286;28;20641;-84
2021/04/18 06:25:17;;;;;;;5.10;2.40;;;15.40;99.90;;;;;;5056620;28;20185;-84
2021/04/18 06:27:44;;;;;;;3.17;2.17;;;14.50;99.90;;;;;;5041205;28;20646;-84
2021/04/18 06:30:11;;;;;;;6.80;2.53;;;13.90;99.90;;;;;;5074654;28;20655;-84
2021/04/18 06:32:37;;;;;;;6.63;3.10;;;13.30;99.90;;;;;;5041349;28;20245;-83
2021/04/18 06:35:04;;;;;;;5.00;3.27;;;13.10;99.90;;;;;;5058621;28;20201;-83
2021/04/18 06:37:29;;;;;;;5.10;3.33;;;13.80;99.90;;;;;;5041783;28;20212;-84
2021/04/18 06:39:55;;;;;;;7.67;3.90;;;13.90;99.90;;;;;;5040411;28;20642;-84
2021/04/18 06:42:23;;;;;;;4.70;3.33;;;13.80;99.90;;;;;;5029754;28;21003;-85
2021/04/18 06:44:50;;;;;;;5.77;4.37;;;14.10;99.90;;;;;;5075084;28;20186;-84
2021/04/18 06:47:16;;;;;;;8.13;3.30;;;14.50;99.90;;;;;;5055326;28;20279;-82
2021/04/18 06:49:42;;;;;;;5.30;2.67;;;14.30;99.90;;;;;;5055327;28;20220;-83
2021/04/18 06:52:08;;;;;;;9.27;4.20;;;14.10;99.90;;;;;;5054265;28;20947;-84
2021/04/18 06:54:36;;;;;;;8.80;3.63;;;13.80;99.90;;;;;;5043467;28;20650;-84
2021/04/18 06:57:02;;;;;;;7.43;4.07;;;13.40;99.90;;;;;;5059957;28;20213;-83
2021/04/18 06:59:28;;;;;;;6.13;4.20;;;13.20;99.90;;;;;;5054844;28;20177;-85
2021/04/18 07:01:54;;;;;;;11.57;4.93;;;13.00;99.90;;;;;;5053215;28;20229;-84
2021/04/18 07:04:23;;;;;;;6.43;4.00;;;12.90;99.90;;;;;;5027579;28;20212;-84
2021/04/18 07:06:53;;;;;;;7.37;4.30;;;12.00;99.90;;;;;;5033187;28;20222;-85
2021/04/18 07:09:21;;;;;;;5.27;4.50;;;11.50;99.90;;;;;;5043485;28;20188;-83
2021/04/18 07:11:51;;;;;;;13.23;5.93;;;12.00;99.90;;;;;;5051389;28;20204;-84
2021/04/18 07:14:34;;;;;;;6.20;4.00;;;12.30;99.90;;;;;;5034503;28;20224;-86
2021/04/18 07:17:11;;;;;;;6.37;4.10;;;13.00;99.90;;;;;;5049248;28;20266;-83
2021/04/18 07:19:42;;;;;;;13.10;4.63;;;13.40;99.90;;;;;;5051593;28;20205;-84
2021/04/18 07:22:07;;;;;;;9.57;5.03;;;13.90;99.90;;;;;;5052559;28;20287;-83
2021/04/18 07:24:57;;;;;;;9.50;5.20;;;14.80;99.90;;;;;;5035720;28;20709;-83
2021/04/18 07:27:23;;;;;;;10.00;4.93;;;16.50;99.90;;;;;;5060020;28;20286;-85
2021/04/18 07:30:08;;;;;;;12.97;5.73;;;18.20;99.90;;;;;;5037349;28;20173;-86
2021/04/18 07:32:34;;;;;;;8.20;5.07;;;19.10;99.90;;;;;;5023356;28;20237;-83
2021/04/18 07:35:00;;;;;;;9.67;5.47;;;19.10;99.90;;;;;;5008666;28;20269;-85
2021/04/18 07:37:28;;;;;;;8.93;4.83;;;18.70;99.90;;;;;;5035532;28;20282;-86
2021/04/18 07:40:00;;;;;;;6.33;4.53;;;19.40;99.90;;;;;;5051347;28;20220;-84
2021/04/18 07:42:34;;;;;;;3.67;2.90;;;20.60;99.90;;;;;;5066938;28;20217;-85
2021/04/18 07:45:20;;;;;;;10.33;4.10;;;22.10;99.90;;;;;;5055090;28;20200;-85
2021/04/18 07:47:47;;;;;;;9.03;4.57;;;23.20;99.90;;;;;;5036997;28;20221;-86
2021/04/18 07:50:16;;;;;;;6.97;4.30;;;23.40;99.90;;;;;;5035124;28;20258;-86
2021/04/18 07:52:45;;;;;;;8.37;4.13;;;21.90;99.80;;;;;;5065546;28;20214;-87
2021/04/18 07:55:13;;;;;;;6.93;3.90;;;21.30;99.90;;;;;;5051136;28;20196;-87
2021/04/18 07:57:40;;;;;;;5.20;3.90;;;20.30;99.90;;;;;;5014910;28;20192;-86
2021/04/18 08:00:08;;;;;;;3.80;2.90;;;17.40;99.90;;;;;;5031354;28;20239;-86
2021/04/18 08:02:35;;;;;;;5.27;4.10;;;15.40;99.90;;;;;;5052014;28;20199;-85
2021/04/18 08:05:00;;;;;;;7.03;3.03;;;14.80;99.90;;;;;;5037136;28;20203;-86
2021/04/18 08:07:26;;;;;;;6.10;3.23;;;14.50;99.90;;;;;;5036591;28;20205;-85
2021/04/18 08:10:21;;;;;;;5.90;3.60;;;13.30;99.90;;;;;;5046315;28;20197;-84
2021/04/18 08:13:11;;;;;;;4.70;3.30;;;13.00;99.90;;;;;;5052895;28;20189;-84
2021/04/18 08:16:03;;;;;;;4.67;2.87;;;13.00;99.90;;;;;;5051698;28;20294;-86
2021/04/18 08:18:36;;;;;;;6.17;2.60;;;12.90;99.90;;;;;;5068627;28;20276;-84
2021/04/18 08:21:20;;;;;;;7.00;2.87;;;13.20;99.90;;;;;;5068633;28;20755;-84
2021/04/18 08:23:46;;;;;;;4.20;3.30;;;13.60;99.90;;;;;;5039839;28;20218;-85
2021/04/18 08:26:15;;;;;;;6.87;3.07;;;14.10;99.90;;;;;;5028392;28;20559;-85
2021/04/18 08:28:55;;;;;;;4.80;2.40;;;14.60;99.90;;;;;;5034615;28;20212;-86
2021/04/18 08:31:28;;;;;;;3.27;2.60;;;14.50;99.90;;;;;;5068487;28;20223;-86
2021/04/18 08:33:55;;;;;;;5.63;2.97;;;14.50;99.90;;;;;;5063533;28;20601;-87
2021/04/18 08:36:29;;;;;;;3.33;2.67;;;14.40;99.90;;;;;;5047954;28;20988;-86
2021/04/18 08:39:04;;;;;;;4.20;2.33;;;15.50;99.90;;;;;;5050717;28;20285;-84
2021/04/18 08:41:55;;;;;;;6.93;3.40;;;17.30;99.90;;;;;;5067782;28;20239;-85
2021/04/18 08:44:30;;;;;;;5.87;2.77;;;18.30;99.90;;;;;;5050029;28;20221;-85
2021/04/18 08:47:21;;;;;;;5.80;3.53;;;19.10;99.90;;;;;;5049909;28;20229;-86
2021/04/18 08:49:54;;;;;;;8.27;2.90;;;20.80;99.90;;;;;;5051835;28;20220;-85
2021/04/18 08:52:27;;;;;;;6.83;2.93;;;19.80;99.90;;;;;;5051907;28;20513;-84
2021/04/18 08:54:55;;;;;;;6.97;3.07;;;17.20;99.90;;;;;;5068886;28;20216;-86
2021/04/18 08:57:24;;;;;;;3.20;2.67;;;17.40;99.90;;;;;;5067364;28;20938;-87
2021/04/18 08:59:54;;;;;;;3.90;3.07;;;17.20;99.90;;;;;;5068285;28;20224;-84
2021/04/18 09:02:20;;;;;;;4.23;2.50;;;19.10;99.90;;;;;;5069284;28;20225;-85
2021/04/18 09:04:49;;;;;;;3.57;2.60;;;20.00;99.90;;;;;;5066663;28;20335;-87
2021/04/18 09:07:17;;;;;;;4.17;3.07;;;19.40;99.90;;;;;;5052592;28;20341;-88
2021/04/18 09:09:44;;;;;;;6.93;3.20;;;18.70;99.90;;;;;;5065878;28;20705;-87
2021/04/18 09:12:11;;;;;;;6.17;3.27;;;19.80;99.90;;;;;;5036152;28;20193;-87
2021/04/18 09:14:44;;;;;;;3.47;2.63;;;18.00;99.90;;;;;;5068414;28;20213;-86
2021/04/18 09:17:18;;;;;;;4.50;2.90;;;18.40;99.90;;;;;;5051839;28;20213;-85
2021/04/18 09:19:48;;;;;;;6.33;2.77;;;18.30;99.90;;;;;;5069245;28;20212;-86
2021/04/18 09:22:37;;;;;;;5.43;2.97;;;18.80;99.90;;;;;;5048707;28;20344;-86
2021/04/18 09:25:17;;;;;;;5.93;4.17;;;18.60;99.90;;;;;;5053222;28;20216;-86
2021/04/18 09:27:52;;;;;;;6.53;3.17;;;19.20;99.90;;;;;;5050609;28;20217;-86
2021/04/18 09:30:23;;;;;;;4.80;3.13;;;18.70;99.90;;;;;;5070535;28;20279;-86
2021/04/18 09:32:54;;;;;;;4.27;2.93;;;18.70;99.90;;;;;;5049866;28;20327;-86
2021/04/18 09:35:22;;;;;;;4.80;3.13;;;19.80;99.90;;;;;;5074352;28;20516;-85
2021/04/18 09:38:03;;;;;;;3.67;2.90;;;17.10;99.90;;;;;;5073051;28;20394;-85
2021/04/18 09:40:32;;;;;;;5.93;3.37;;;17.30;99.90;;;;;;5073776;28;20220;-85
2021/04/18 09:42:59;;;;;;;4.67;2.83;;;16.80;99.90;;;;;;5047646;28;20209;-85
2021/04/18 09:45:27;;;;;;;3.60;2.60;;;17.30;99.90;;;;;;5023603;28;20247;-85
2021/04/18 09:48:09;;;;;;;8.00;4.00;;;17.60;99.90;;;;;;5073003;28;20183;-84
2021/04/18 09:50:35;;;;;;;4.73;2.73;;;19.40;99.90;;;;;;5055725;28;20220;-85
2021/04/18 09:53:18;;;;;;;4.53;3.27;;;19.30;99.90;;;;;;5054036;28;20229;-86
2021/04/18 09:56:04;;;;;;;4.50;3.10;;;18.50;99.90;;;;;;5053919;28;20232;-86
2021/04/18 09:58:40;;;;;;;6.37;3.00;;;18.90;99.90;;;;;;5056334;28;20354;-85
2021/04/18 10:01:27;;;;;;;5.40;3.20;;;18.60;99.90;;;;;;5054770;28;20212;-86
2021/04/18 10:03:53;;;;;;;7.30;3.30;;;20.00;99.90;;;;;;5053783;28;20320;-86
2021/04/18 10:06:19;;;;;;;6.63;3.13;;;19.80;99.90;;;;;;5041214;28;20654;-86
2021/04/18 10:09:01;;;;;;;3.93;3.33;;;20.20;99.90;;;;;;5036571;28;20217;-86
2021/04/18 10:11:27;;;;;;;4.33;2.70;;;20.50;99.90;;;;;;5055181;28;20221;-85
2021/04/18 10:13:58;;;;;;;4.80;3.10;;;20.00;99.90;;;;;;5037432;28;20228;-85
2021/04/18 10:16:25;;;;;;;6.13;2.83;;;20.20;99.00;;;;;;5054059;28;20261;-85
2021/04/18 10:19:03;;;;;;;8.43;2.97;;;20.10;98.50;;;;;;5072699;28;20259;-86
2021/04/18 10:21:29;;;;;;;4.50;2.77;;;20.00;99.80;;;;;;5054340;28;20244;-85
2021/04/18 10:23:55;;;;;;;5.37;3.43;;;19.80;99.80;;;;;;5039566;28;20189;-86
2021/04/18 10:26:22;;;;;;;3.77;2.87;;;20.20;99.90;;;;;;5071479;28;20244;-86
2021/04/18 10:28:51;;;;;;;6.40;3.47;;;20.20;99.30;;;;;;5051966;28;20228;-86
2021/04/18 10:31:19;;;;;;;6.03;3.50;;;20.40;98.50;;;;;;5052280;28;20229;-86
2021/04/18 10:33:45;;;;;;;5.53;2.67;;;20.20;99.40;;;;;;5048472;28;20228;-86
2021/04/18 10:36:12;;;;;;;4.20;2.83;;;19.80;99.90;;;;;;5047839;28;20190;-87
2021/04/18 10:38:38;;;;;;;4.07;2.70;;;17.60;99.90;;;;;;5048719;28;20221;-86
2021/04/18 10:41:05;;;;;;;3.67;2.83;;;18.20;99.90;;;;;;5051962;28;20232;-85
2021/04/18 10:43:31;;;;;;;4.10;3.47;;;18.30;99.90;;;;;;5040146;28;20216;-86
2021/04/18 10:45:57;;;;;;;4.17;2.40;;;18.00;99.90;;;;;;5039202;28;20221;-85
2021/04/18 10:48:23;;;;;;;9.17;3.47;;;18.20;99.90;;;;;;5056203;28;20193;-84
2021/04/18 10:50:49;;;;;;;6.10;3.17;;;18.50;99.90;;;;;;5055241;28;20307;-88
2021/04/18 10:53:15;;;;;;;3.63;3.17;;;17.70;99.90;;;;;;5035225;28;20867;-86
2021/04/18 10:55:42;;;;;;;3.43;3.10;;;18.00;99.90;;;;;;5033029;28;20297;-86
2021/04/18 10:58:08;;;;;;;7.13;3.00;;;18.30;99.90;;;;;;5052534;28;20220;-86
2021/04/18 11:00:34;;;;;;;4.97;3.20;;;18.80;99.90;;;;;;5051106;28;20215;-85
2021/04/18 11:03:00;;;;;;;10.63;3.27;;;19.00;99.90;;;;;;5054695;28;20210;-86
2021/04/18 11:05:26;;;;;;;4.60;3.17;;;19.20;99.90;;;;;;5036063;28;20643;-86
2021/04/18 11:07:51;;;;;;;5.53;3.00;;;18.40;99.90;;;;;;5029911;28;20561;-86
2021/04/18 11:10:17;;;;;;;7.00;3.47;;;18.50;99.90;;;;;;5028142;28;20278;-87
2021/04/18 11:12:43;;;;;;;5.07;3.00;;;18.30;99.90;;;;;;5030370;28;20692;-85
2021/04/18 11:15:11;;;;;;;7.87;2.80;;;18.10;99.90;;;;;;5046569;28;20188;-87
2021/04/18 11:17:37;;;;;;;7.63;3.33;;;17.90;99.90;;;;;;5048142;28;20303;-86
2021/04/18 11:20:06;;;;;;;7.00;2.80;;;17.90;99.90;;;;;;5063543;28;20221;-86
2021/04/18 11:22:32;;;;;;;3.83;2.57;;;17.80;99.90;;;;;;5046511;28;20264;-86
2021/04/18 11:25:00;;;;;;;6.30;3.30;;;17.60;99.90;;;;;;5015607;28;20324;-88
2021/04/18 11:27:26;;;;;;;4.33;2.20;;;17.60;99.90;;;;;;5014782;28;20592;-85
2021/04/18 11:29:54;;;;;;;4.93;3.60;;;17.60;99.90;;;;;;5026440;28;20211;-85
2021/04/18 11:32:19;;;;;;;5.23;3.20;;;17.70;99.90;;;;;;5043606;28;20224;-85
2021/04/18 11:34:45;;;;;;;5.37;3.53;;;17.40;99.90;;;;;;5047102;28;20293;-86
2021/04/18 11:37:12;;;;;;;4.37;2.67;;;17.40;99.90;;;;;;5033407;28;20296;-85
2021/04/18 11:39:38;;;;;;;3.10;2.80;;;17.20;99.90;;;;;;5033963;28;20200;-86
2021/04/18 11:42:04;;;;;;;6.60;2.97;;;17.20;99.90;;;;;;5053281;28;20209;-85
2021/04/18 11:44:30;;;;;;;10.63;3.37;;;16.90;99.90;;;;;;5051560;28;20653;-85
2021/04/18 11:46:55;;;;;;;6.20;2.90;;;17.10;99.90;;;;;;5034208;28;20212;-86
2021/04/18 11:49:22;;;;;;;4.60;2.73;;;17.20;99.90;;;;;;5052844;28;21202;-85
2021/04/18 11:51:48;;;;;;;3.57;2.73;;;16.80;99.90;;;;;;5035723;28;20227;-85
2021/04/18 11:54:14;;;;;;;5.83;2.80;;;16.90;99.90;;;;;;5073337;28;20185;-85
2021/04/18 11:56:40;;;;;;;9.43;2.93;;;16.60;99.90;;;;;;5036197;28;20220;-85
2021/04/18 11:59:06;;;;;;;3.27;2.70;;;16.20;99.90;;;;;;5051736;28;20216;-84
2021/04/18 12:01:33;;;;;;;7.77;2.77;;;16.20;99.90;;;;;;5071663;28;20757;-83
2021/04/18 12:03:59;;;;;;;2.77;2.07;;;16.00;99.90;;;;;;5053674;28;20287;-85
2021/04/18 12:06:25;;;;;;;4.27;2.80;;;15.90;99.90;;;;;;5053443;28;20737;-83
2021/04/18 12:08:51;;;;;;;6.27;2.93;;;15.90;99.90;;;;;;5038692;28;20677;-86
2021/04/18 12:11:16;;;;;;;4.33;2.20;;;15.70;99.90;;;;;;5021196;28;20750;-85
2021/04/18 12:13:46;;;;;;;5.27;2.73;;;15.70;99.90;;;;;;5055865;28;20283;-84
2021/04/18 12:16:14;;;;;;;2.60;2.10;;;15.70;99.90;;;;;;5062423;28;20212;-85
2021/04/18 12:18:41;;;;;;;4.20;2.67;;;15.40;99.90;;;;;;5069979;28;20201;-83
2021/04/18 12:21:07;;;;;;;4.87;2.97;;;15.40;99.90;;;;;;5036297;28;20225;-85
2021/04/18 12:23:33;;;;;;;7.27;2.90;;;15.40;99.90;;;;;;5050167;28;20589;-85
2021/04/18 12:25:59;;;;;;;2.53;1.90;;;15.30;99.90;;;;;;5038589;28;20225;-86
2021/04/18 12:28:26;;;;;;;8.60;3.00;;;15.50;99.90;;;;;;5036473;28;20220;-85
2021/04/18 12:30:52;;;;;;;2.87;2.40;;;15.50;99.90;;;;;;5019941;28;21126;-86
2021/04/18 12:33:18;;;;;;;3.10;2.80;;;15.80;99.90;;;;;;5038753;28;20281;-85
2021/04/18 12:35:44;;;;;;;8.30;3.20;;;15.70;99.90;;;;;;5036708;28;20239;-84
2021/04/18 12:38:09;;;;;;;3.13;2.80;;;15.60;99.90;;;;;;5052615;28;20300;-84
2021/04/18 12:40:35;;;;;;;5.30;3.17;;;15.20;99.90;;;;;;5053094;28;20681;-83
2021/04/18 12:43:01;;;;;;;6.53;2.37;;;15.30;99.90;;;;;;5038294;28;21185;-85
2021/04/18 12:45:27;;;;;;;6.53;2.93;;;15.40;99.90;;;;;;5037243;28;20193;-85
2021/04/18 12:47:53;;;;;;;6.60;3.43;;;15.00;99.90;;;;;;5038993;28;21316;-84
2021/04/18 12:50:18;;;;;;;7.77;3.57;;;15.10;99.90;;;;;;5035455;28;20249;-85
2021/04/18 12:52:44;;;;;;;5.73;3.63;;;15.20;99.90;;;;;;5048738;28;21085;-86